sensor_id;sensor_type;location;lat;lon;timestamp;temperature;humidity
814;DHT22;389;48.710;9.392;2023-05-07T00:02:20;14.30;99.90
814;DHT22;389;48.710;9.392;2023-05-07T00:04:46;14.30;99.90
814;DHT22;389;48.710;9.392;2023-05-07T00:07:12;14.30;99.90
814;DHT22;389;48.710;9.392;2023-05-07T00:09:37;14.30;99.90
814;DHT22;389;48.710;9.392;2023-05-07T00:12:03;14.20;99.90
814;DHT22;389;48.710;9.392;2023-05-07T00:14:29;14.20;99.90
814;DHT22;389;48.710;9.392;2023-05-07T00:16:55;14.20;99.90
814;DHT22;389;48.710;9.392;2023-05-07T00:19:20;14.20;99.90
814;DHT22;389;48.710;9.392;2023-05-07T00:21:46;14.30;99.90
814;DHT22;389;48.710;9.392;2023-05-07T00:24:12;14.10;99.90
814;DHT22;389;48.710;9.392;2023-05-07T00:26:37;14.10;99.90
814;DHT22;389;48.710;9.392;2023-05-07T00:29:03;14.10;99.90
814;DHT22;389;48.710;9.392;2023-05-07T00:31:28;14.00;99.90
814;DHT22;389;48.710;9.392;2023-05-07T00:33:54;14.00;99.90
814;DHT22;389;48.710;9.392;2023-05-07T00:36:19;14.00;99.90
814;DHT22;389;48.710;9.392;2023-05-07T00:38:45;14.00;99.90
814;DHT22;389;48.710;9.392;2023-05-07T00:41:39;13.90;99.90
814;DHT22;389;48.710;9.392;2023-05-07T00:44:06;13.90;99.90
814;DHT22;389;48.710;9.392;2023-05-07T00:46:32;13.80;99.90
814;DHT22;389;48.710;9.392;2023-05-07T00:48:59;13.90;99.90
814;DHT22;389;48.710;9.392;2023-05-07T00:51:26;13.80;99.90
814;DHT22;389;48.710;9.392;2023-05-07T00:53:55;13.80;99.90
814;DHT22;389;48.710;9.392;2023-05-07T00:56:21;13.80;99.90
814;DHT22;389;48.710;9.392;2023-05-07T00:58:48;13.80;99.90
814;DHT22;389;48.710;9.392;2023-05-07T01:01:13;13.70;99.90
814;DHT22;389;48.710;9.392;2023-05-07T01:03:41;13.70;99.90
814;DHT22;389;48.710;9.392;2023-05-07T01:06:07;13.60;99.90
814;DHT22;389;48.710;9.392;2023-05-07T01:08:41;13.70;99.90
814;DHT22;389;48.710;9.392;2023-05-07T01:11:07;13.60;99.90
814;DHT22;389;48.710;9.392;2023-05-07T01:13:34;13.60;99.90
814;DHT22;389;48.710;9.392;2023-05-07T01:16:00;13.60;99.90
814;DHT22;389;48.710;9.392;2023-05-07T01:18:26;13.50;99.90
814;DHT22;389;48.710;9.392;2023-05-07T01:20:52;13.60;99.90
814;DHT22;389;48.710;9.392;2023-05-07T01:23:18;13.60;99.90
814;DHT22;389;48.710;9.392;2023-05-07T01:25:53;13.60;99.90
814;DHT22;389;48.710;9.392;2023-05-07T01:28:19;13.50;99.90
814;DHT22;389;48.710;9.392;2023-05-07T01:30:49;13.50;99.90
814;DHT22;389;48.710;9.392;2023-05-07T01:33:19;13.50;99.90
814;DHT22;389;48.710;9.392;2023-05-07T01:35:47;13.50;99.90
814;DHT22;389;48.710;9.392;2023-05-07T01:38:14;13.50;99.90
814;DHT22;389;48.710;9.392;2023-05-07T01:40:40;13.40;99.90
814;DHT22;389;48.710;9.392;2023-05-07T01:43:06;13.40;99.90
814;DHT22;389;48.710;9.392;2023-05-07T01:45:32;13.40;99.90
814;DHT22;389;48.710;9.392;2023-05-07T01:47:59;13.40;99.90
814;DHT22;389;48.710;9.392;2023-05-07T01:50:25;13.30;99.90
814;DHT22;389;48.710;9.392;2023-05-07T01:52:51;13.30;99.90
814;DHT22;389;48.710;9.392;2023-05-07T01:55:17;13.30;99.90
814;DHT22;389;48.710;9.392;2023-05-07T01:57:43;13.30;99.90
814;DHT22;389;48.710;9.392;2023-05-07T02:00:09;13.30;99.90
814;DHT22;389;48.710;9.392;2023-05-07T02:02:35;13.20;99.90
814;DHT22;389;48.710;9.392;2023-05-07T02:05:01;13.20;99.90
814;DHT22;389;48.710;9.392;2023-05-07T02:07:27;13.20;99.90
814;DHT22;389;48.710;9.392;2023-05-07T02:09:53;13.20;99.90
814;DHT22;389;48.710;9.392;2023-05-07T02:12:20;13.20;99.90
814;DHT22;389;48.710;9.392;2023-05-07T02:14:46;13.10;99.90
814;DHT22;389;48.710;9.392;2023-05-07T02:17:11;13.10;99.90
814;DHT22;389;48.710;9.392;2023-05-07T02:19:37;13.10;99.90
814;DHT22;389;48.710;9.392;2023-05-07T02:22:11;13.10;99.90
814;DHT22;389;48.710;9.392;2023-05-07T02:24:36;13.10;99.90
814;DHT22;389;48.710;9.392;2023-05-07T02:27:02;13.00;99.90
814;DHT22;389;48.710;9.392;2023-05-07T02:29:28;13.00;99.90
814;DHT22;389;48.710;9.392;2023-05-07T02:31:54;13.00;99.90
814;DHT22;389;48.710;9.392;2023-05-07T02:34:20;12.90;99.90
814;DHT22;389;48.710;9.392;2023-05-07T02:36:46;12.90;99.90
814;DHT22;389;48.710;9.392;2023-05-07T02:39:12;12.80;99.90
814;DHT22;389;48.710;9.392;2023-05-07T02:41:38;12.90;99.90
814;DHT22;389;48.710;9.392;2023-05-07T02:44:04;12.80;99.90
814;DHT22;389;48.710;9.392;2023-05-07T02:46:29;12.80;99.90
814;DHT22;389;48.710;9.392;2023-05-07T02:48:55;12.80;99.90
814;DHT22;389;48.710;9.392;2023-05-07T02:51:22;12.70;99.90
814;DHT22;389;48.710;9.392;2023-05-07T02:53:48;12.70;99.90
814;DHT22;389;48.710;9.392;2023-05-07T02:56:14;12.70;99.90
814;DHT22;389;48.710;9.392;2023-05-07T02:58:39;12.60;99.90
814;DHT22;389;48.710;9.392;2023-05-07T03:01:06;12.70;99.90
814;DHT22;389;48.710;9.392;2023-05-07T03:03:31;12.60;99.90
814;DHT22;389;48.710;9.392;2023-05-07T03:05:57;12.50;99.90
814;DHT22;389;48.710;9.392;2023-05-07T03:08:23;12.50;99.90
814;DHT22;389;48.710;9.392;2023-05-07T03:10:49;12.40;99.90
814;DHT22;389;48.710;9.392;2023-05-07T03:13:15;12.50;99.90
814;DHT22;389;48.710;9.392;2023-05-07T03:15:40;12.40;99.90
814;DHT22;389;48.710;9.392;2023-05-07T03:18:06;12.40;99.90
814;DHT22;389;48.710;9.392;2023-05-07T03:20:36;12.40;99.90
814;DHT22;389;48.710;9.392;2023-05-07T03:23:02;12.30;99.90
814;DHT22;389;48.710;9.392;2023-05-07T03:25:28;12.40;99.90
814;DHT22;389;48.710;9.392;2023-05-07T03:27:55;12.20;99.90
814;DHT22;389;48.710;9.392;2023-05-07T03:30:21;12.20;99.90
814;DHT22;389;48.710;9.392;2023-05-07T03:32:47;12.10;99.90
814;DHT22;389;48.710;9.392;2023-05-07T03:35:12;12.10;99.90
814;DHT22;389;48.710;9.392;2023-05-07T03:37:39;12.10;99.90
814;DHT22;389;48.710;9.392;2023-05-07T03:40:05;12.00;99.90
814;DHT22;389;48.710;9.392;2023-05-07T03:42:31;12.00;99.90
814;DHT22;389;48.710;9.392;2023-05-07T03:44:57;12.00;99.90
814;DHT22;389;48.710;9.392;2023-05-07T03:47:22;12.10;99.90
814;DHT22;389;48.710;9.392;2023-05-07T03:49:48;11.90;99.90
814;DHT22;389;48.710;9.392;2023-05-07T03:52:14;11.90;99.90
814;DHT22;389;48.710;9.392;2023-05-07T03:54:43;11.80;99.90
814;DHT22;389;48.710;9.392;2023-05-07T03:57:08;11.80;99.90
814;DHT22;389;48.710;9.392;2023-05-07T03:59:34;11.80;99.90
814;DHT22;389;48.710;9.392;2023-05-07T04:02:00;11.70;99.90
814;DHT22;389;48.710;9.392;2023-05-07T04:04:25;11.90;99.90
814;DHT22;389;48.710;9.392;2023-05-07T04:06:51;11.70;99.90
814;DHT22;389;48.710;9.392;2023-05-07T04:09:16;11.70;99.90
814;DHT22;389;48.710;9.392;2023-05-07T04:11:42;11.70;99.90
814;DHT22;389;48.710;9.392;2023-05-07T04:14:08;11.70;99.90
814;DHT22;389;48.710;9.392;2023-05-07T04:16:34;11.70;99.90
814;DHT22;389;48.710;9.392;2023-05-07T04:19:00;11.70;99.90
814;DHT22;389;48.710;9.392;2023-05-07T04:21:25;11.90;99.90
814;DHT22;389;48.710;9.392;2023-05-07T04:23:51;11.80;99.90
814;DHT22;389;48.710;9.392;2023-05-07T04:26:17;11.90;99.90
814;DHT22;389;48.710;9.392;2023-05-07T04:28:42;11.80;99.90
814;DHT22;389;48.710;9.392;2023-05-07T04:31:08;11.90;99.90
814;DHT22;389;48.710;9.392;2023-05-07T04:33:34;11.90;99.90
814;DHT22;389;48.710;9.392;2023-05-07T04:36:03;12.00;99.90
814;DHT22;389;48.710;9.392;2023-05-07T04:38:32;12.10;99.90
814;DHT22;389;48.710;9.392;2023-05-07T04:41:03;12.10;99.90
814;DHT22;389;48.710;9.392;2023-05-07T04:43:37;12.20;99.90
814;DHT22;389;48.710;9.392;2023-05-07T04:46:02;12.30;99.90
814;DHT22;389;48.710;9.392;2023-05-07T04:48:28;12.40;99.90
814;DHT22;389;48.710;9.392;2023-05-07T04:50:54;12.40;99.90
814;DHT22;389;48.710;9.392;2023-05-07T04:53:20;12.60;99.90
814;DHT22;389;48.710;9.392;2023-05-07T04:55:45;12.60;99.90
814;DHT22;389;48.710;9.392;2023-05-07T04:58:11;12.60;99.90
814;DHT22;389;48.710;9.392;2023-05-07T05:00:37;12.80;99.90
814;DHT22;389;48.710;9.392;2023-05-07T05:03:05;12.70;99.90
814;DHT22;389;48.710;9.392;2023-05-07T05:05:31;12.80;99.90
814;DHT22;389;48.710;9.392;2023-05-07T05:07:56;12.90;99.90
814;DHT22;389;48.710;9.392;2023-05-07T05:10:22;12.90;99.90
814;DHT22;389;48.710;9.392;2023-05-07T05:12:47;13.10;99.90
814;DHT22;389;48.710;9.392;2023-05-07T05:15:13;13.30;99.90
814;DHT22;389;48.710;9.392;2023-05-07T05:17:39;13.30;99.90
814;DHT22;389;48.710;9.392;2023-05-07T05:20:05;13.50;99.90
814;DHT22;389;48.710;9.392;2023-05-07T05:22:31;13.60;99.90
814;DHT22;389;48.710;9.392;2023-05-07T05:24:57;13.70;99.90
814;DHT22;389;48.710;9.392;2023-05-07T05:27:22;13.80;99.90
814;DHT22;389;48.710;9.392;2023-05-07T05:29:48;13.80;99.90
814;DHT22;389;48.710;9.392;2023-05-07T05:32:14;14.00;99.90
814;DHT22;389;48.710;9.392;2023-05-07T05:34:39;14.50;99.90
814;DHT22;389;48.710;9.392;2023-05-07T05:37:05;14.90;99.90
814;DHT22;389;48.710;9.392;2023-05-07T05:39:34;15.40;99.90
814;DHT22;389;48.710;9.392;2023-05-07T05:42:01;16.00;99.90
814;DHT22;389;48.710;9.392;2023-05-07T05:44:26;16.50;99.90
814;DHT22;389;48.710;9.392;2023-05-07T05:46:52;17.20;99.30
814;DHT22;389;48.710;9.392;2023-05-07T05:49:20;17.60;97.70
814;DHT22;389;48.710;9.392;2023-05-07T05:51:46;18.20;96.70
814;DHT22;389;48.710;9.392;2023-05-07T05:54:11;18.60;95.80
814;DHT22;389;48.710;9.392;2023-05-07T05:56:37;18.90;94.00
814;DHT22;389;48.710;9.392;2023-05-07T05:59:03;19.10;93.20
814;DHT22;389;48.710;9.392;2023-05-07T06:01:29;19.30;92.60
814;DHT22;389;48.710;9.392;2023-05-07T06:03:54;19.50;92.60
814;DHT22;389;48.710;9.392;2023-05-07T06:09:13;20.10;91.70
814;DHT22;389;48.710;9.392;2023-05-07T06:11:38;20.40;91.50
814;DHT22;389;48.710;9.392;2023-05-07T06:14:05;20.60;90.80
814;DHT22;389;48.710;9.392;2023-05-07T06:16:38;20.90;90.70
814;DHT22;389;48.710;9.392;2023-05-07T06:19:04;21.20;90.00
814;DHT22;389;48.710;9.392;2023-05-07T06:21:36;21.50;88.90
814;DHT22;389;48.710;9.392;2023-05-07T06:24:01;22.00;88.00
814;DHT22;389;48.710;9.392;2023-05-07T06:26:27;22.10;86.20
814;DHT22;389;48.710;9.392;2023-05-07T06:28:55;22.20;85.50
814;DHT22;389;48.710;9.392;2023-05-07T06:31:21;22.20;85.70
814;DHT22;389;48.710;9.392;2023-05-07T06:33:48;22.40;85.30
814;DHT22;389;48.710;9.392;2023-05-07T06:36:14;22.40;84.40
814;DHT22;389;48.710;9.392;2023-05-07T06:38:39;22.60;84.30
814;DHT22;389;48.710;9.392;2023-05-07T06:41:06;22.60;84.00
814;DHT22;389;48.710;9.392;2023-05-07T06:43:32;22.80;83.70
814;DHT22;389;48.710;9.392;2023-05-07T06:45:57;22.80;83.10
814;DHT22;389;48.710;9.392;2023-05-07T06:48:23;22.90;82.60
814;DHT22;389;48.710;9.392;2023-05-07T06:50:48;22.90;82.50
814;DHT22;389;48.710;9.392;2023-05-07T06:53:14;22.80;82.40
814;DHT22;389;48.710;9.392;2023-05-07T06:55:40;22.80;82.10
814;DHT22;389;48.710;9.392;2023-05-07T06:58:06;22.60;81.80
814;DHT22;389;48.710;9.392;2023-05-07T07:00:32;22.50;82.40
814;DHT22;389;48.710;9.392;2023-05-07T07:02:58;22.40;83.10
814;DHT22;389;48.710;9.392;2023-05-07T07:05:24;22.10;83.10
814;DHT22;389;48.710;9.392;2023-05-07T07:07:50;22.10;83.90
814;DHT22;389;48.710;9.392;2023-05-07T07:10:21;21.80;84.60
814;DHT22;389;48.710;9.392;2023-05-07T07:12:47;21.70;85.00
814;DHT22;389;48.710;9.392;2023-05-07T07:15:13;21.50;86.60
814;DHT22;389;48.710;9.392;2023-05-07T07:17:39;21.30;86.30
814;DHT22;389;48.710;9.392;2023-05-07T07:20:05;21.10;86.60
814;DHT22;389;48.710;9.392;2023-05-07T07:22:30;21.10;87.20
814;DHT22;389;48.710;9.392;2023-05-07T07:24:56;21.20;87.40
814;DHT22;389;48.710;9.392;2023-05-07T07:27:21;21.40;87.60
814;DHT22;389;48.710;9.392;2023-05-07T07:29:52;21.40;86.90
814;DHT22;389;48.710;9.392;2023-05-07T07:32:18;21.60;85.90
814;DHT22;389;48.710;9.392;2023-05-07T07:34:43;21.70;85.90
814;DHT22;389;48.710;9.392;2023-05-07T07:37:09;21.80;85.20
814;DHT22;389;48.710;9.392;2023-05-07T07:42:10;22.00;85.00
814;DHT22;389;48.710;9.392;2023-05-07T07:44:36;22.10;84.20
814;DHT22;389;48.710;9.392;2023-05-07T07:47:05;22.30;83.60
814;DHT22;389;48.710;9.392;2023-05-07T07:49:30;22.50;83.80
814;DHT22;389;48.710;9.392;2023-05-07T07:51:56;22.70;83.30
814;DHT22;389;48.710;9.392;2023-05-07T07:54:24;22.90;82.60
814;DHT22;389;48.710;9.392;2023-05-07T07:56:50;23.10;83.10
814;DHT22;389;48.710;9.392;2023-05-07T07:59:16;23.20;82.20
814;DHT22;389;48.710;9.392;2023-05-07T08:01:44;23.40;81.90
814;DHT22;389;48.710;9.392;2023-05-07T08:04:10;23.50;80.80
814;DHT22;389;48.710;9.392;2023-05-07T08:06:36;23.70;80.90
814;DHT22;389;48.710;9.392;2023-05-07T08:09:02;23.70;80.40
814;DHT22;389;48.710;9.392;2023-05-07T08:11:28;23.70;80.40
814;DHT22;389;48.710;9.392;2023-05-07T08:13:55;23.80;80.40
814;DHT22;389;48.710;9.392;2023-05-07T08:16:21;23.80;80.40
814;DHT22;389;48.710;9.392;2023-05-07T08:18:46;23.90;81.10
814;DHT22;389;48.710;9.392;2023-05-07T08:21:12;24.00;80.90
814;DHT22;389;48.710;9.392;2023-05-07T08:23:38;24.20;80.10
814;DHT22;389;48.710;9.392;2023-05-07T08:26:03;24.30;79.20
814;DHT22;389;48.710;9.392;2023-05-07T08:28:29;24.50;79.40
814;DHT22;389;48.710;9.392;2023-05-07T08:30:54;24.80;80.70
814;DHT22;389;48.710;9.392;2023-05-07T08:33:22;24.80;79.70
814;DHT22;389;48.710;9.392;2023-05-07T08:35:47;25.00;79.00
814;DHT22;389;48.710;9.392;2023-05-07T08:38:13;25.20;78.60
814;DHT22;389;48.710;9.392;2023-05-07T08:40:39;25.40;78.80
814;DHT22;389;48.710;9.392;2023-05-07T08:43:06;25.50;78.00
814;DHT22;389;48.710;9.392;2023-05-07T08:45:33;25.60;76.90
814;DHT22;389;48.710;9.392;2023-05-07T08:48:02;25.80;77.80
814;DHT22;389;48.710;9.392;2023-05-07T08:50:29;25.80;78.40
814;DHT22;389;48.710;9.392;2023-05-07T08:52:55;26.00;76.80
814;DHT22;389;48.710;9.392;2023-05-07T08:55:22;26.00;76.90
814;DHT22;389;48.710;9.392;2023-05-07T08:57:48;26.10;76.50
814;DHT22;389;48.710;9.392;2023-05-07T09:00:14;26.20;76.60
814;DHT22;389;48.710;9.392;2023-05-07T09:02:40;26.20;76.80
814;DHT22;389;48.710;9.392;2023-05-07T09:05:06;26.20;76.90
814;DHT22;389;48.710;9.392;2023-05-07T09:07:32;26.20;76.10
814;DHT22;389;48.710;9.392;2023-05-07T09:09:57;26.20;75.80
814;DHT22;389;48.710;9.392;2023-05-07T09:12:23;26.10;76.50
814;DHT22;389;48.710;9.392;2023-05-07T09:14:49;26.10;76.40
814;DHT22;389;48.710;9.392;2023-05-07T09:17:16;26.10;75.60
814;DHT22;389;48.710;9.392;2023-05-07T09:19:44;26.10;75.60
814;DHT22;389;48.710;9.392;2023-05-07T09:22:10;26.10;74.90
814;DHT22;389;48.710;9.392;2023-05-07T09:24:35;26.10;74.80
814;DHT22;389;48.710;9.392;2023-05-07T09:27:04;26.20;75.30
814;DHT22;389;48.710;9.392;2023-05-07T09:29:30;26.30;74.00
814;DHT22;389;48.710;9.392;2023-05-07T09:32:01;26.20;73.20
814;DHT22;389;48.710;9.392;2023-05-07T09:34:26;26.20;73.90
814;DHT22;389;48.710;9.392;2023-05-07T09:36:53;26.20;74.20
814;DHT22;389;48.710;9.392;2023-05-07T09:39:19;26.20;75.20
814;DHT22;389;48.710;9.392;2023-05-07T09:41:46;26.10;73.40
814;DHT22;389;48.710;9.392;2023-05-07T09:44:13;26.10;73.80
814;DHT22;389;48.710;9.392;2023-05-07T09:46:42;26.20;74.60
814;DHT22;389;48.710;9.392;2023-05-07T09:49:12;26.20;75.00
814;DHT22;389;48.710;9.392;2023-05-07T09:51:48;26.30;74.80
814;DHT22;389;48.710;9.392;2023-05-07T09:54:15;26.40;74.80
814;DHT22;389;48.710;9.392;2023-05-07T09:56:45;26.50;74.00
814;DHT22;389;48.710;9.392;2023-05-07T09:59:15;26.50;73.30
814;DHT22;389;48.710;9.392;2023-05-07T10:01:42;26.60;73.40
814;DHT22;389;48.710;9.392;2023-05-07T10:04:09;26.60;72.50
814;DHT22;389;48.710;9.392;2023-05-07T10:06:35;26.60;72.20
814;DHT22;389;48.710;9.392;2023-05-07T10:09:02;26.60;72.80
814;DHT22;389;48.710;9.392;2023-05-07T10:11:28;26.70;72.00
814;DHT22;389;48.710;9.392;2023-05-07T10:13:53;26.90;70.80
814;DHT22;389;48.710;9.392;2023-05-07T10:16:20;27.00;69.10
814;DHT22;389;48.710;9.392;2023-05-07T10:18:47;27.20;70.90
814;DHT22;389;48.710;9.392;2023-05-07T10:21:23;27.40;70.80
814;DHT22;389;48.710;9.392;2023-05-07T10:27:05;27.70;70.60
814;DHT22;389;48.710;9.392;2023-05-07T10:29:37;28.00;68.10
814;DHT22;389;48.710;9.392;2023-05-07T10:32:11;28.10;67.00
814;DHT22;389;48.710;9.392;2023-05-07T10:34:43;28.20;67.00
814;DHT22;389;48.710;9.392;2023-05-07T10:37:09;28.30;66.20
814;DHT22;389;48.710;9.392;2023-05-07T10:39:36;28.40;65.20
814;DHT22;389;48.710;9.392;2023-05-07T10:42:12;28.40;63.40
814;DHT22;389;48.710;9.392;2023-05-07T10:44:38;28.40;64.10
814;DHT22;389;48.710;9.392;2023-05-07T10:47:08;28.40;63.10
814;DHT22;389;48.710;9.392;2023-05-07T10:49:35;28.40;63.60
814;DHT22;389;48.710;9.392;2023-05-07T10:52:23;28.30;62.20
814;DHT22;389;48.710;9.392;2023-05-07T10:57:40;28.40;63.40
814;DHT22;389;48.710;9.392;2023-05-07T11:05:29;28.80;61.20
814;DHT22;389;48.710;9.392;2023-05-07T11:08:01;29.10;60.50
814;DHT22;389;48.710;9.392;2023-05-07T11:13:15;29.20;58.50
814;DHT22;389;48.710;9.392;2023-05-07T11:15:46;29.10;59.20
814;DHT22;389;48.710;9.392;2023-05-07T11:18:16;28.90;59.20
814;DHT22;389;48.710;9.392;2023-05-07T11:20:47;28.80;59.90
814;DHT22;389;48.710;9.392;2023-05-07T11:26:08;28.90;58.90
814;DHT22;389;48.710;9.392;2023-05-07T11:28:38;28.80;58.00
814;DHT22;389;48.710;9.392;2023-05-07T11:31:05;29.00;58.10
814;DHT22;389;48.710;9.392;2023-05-07T11:33:31;29.10;58.00
814;DHT22;389;48.710;9.392;2023-05-07T11:35:57;29.20;58.20
814;DHT22;389;48.710;9.392;2023-05-07T11:38:23;29.30;57.90
814;DHT22;389;48.710;9.392;2023-05-07T11:40:50;29.50;57.30
814;DHT22;389;48.710;9.392;2023-05-07T11:43:16;29.60;58.20
814;DHT22;389;48.710;9.392;2023-05-07T11:45:42;29.60;57.60
814;DHT22;389;48.710;9.392;2023-05-07T11:48:07;29.50;57.50
814;DHT22;389;48.710;9.392;2023-05-07T11:50:33;29.40;57.80
814;DHT22;389;48.710;9.392;2023-05-07T11:52:59;29.30;58.00
814;DHT22;389;48.710;9.392;2023-05-07T11:55:25;29.20;57.60
814;DHT22;389;48.710;9.392;2023-05-07T11:57:51;29.10;58.10
814;DHT22;389;48.710;9.392;2023-05-07T12:00:17;29.10;57.40
814;DHT22;389;48.710;9.392;2023-05-07T12:02:45;29.00;57.10
814;DHT22;389;48.710;9.392;2023-05-07T12:05:11;28.80;57.10
814;DHT22;389;48.710;9.392;2023-05-07T12:07:36;28.70;57.70
814;DHT22;389;48.710;9.392;2023-05-07T12:10:05;28.60;56.70
814;DHT22;389;48.710;9.392;2023-05-07T12:12:38;28.50;57.60
814;DHT22;389;48.710;9.392;2023-05-07T12:15:04;28.50;57.30
814;DHT22;389;48.710;9.392;2023-05-07T12:17:30;28.50;57.30
814;DHT22;389;48.710;9.392;2023-05-07T12:19:56;28.40;57.80
814;DHT22;389;48.710;9.392;2023-05-07T12:22:22;28.50;57.80
814;DHT22;389;48.710;9.392;2023-05-07T12:24:49;28.40;58.00
814;DHT22;389;48.710;9.392;2023-05-07T12:27:15;28.30;58.20
814;DHT22;389;48.710;9.392;2023-05-07T12:29:48;28.30;57.70
814;DHT22;389;48.710;9.392;2023-05-07T12:32:18;28.30;57.60
814;DHT22;389;48.710;9.392;2023-05-07T12:34:44;28.30;57.60
814;DHT22;389;48.710;9.392;2023-05-07T12:37:11;28.30;57.90
814;DHT22;389;48.710;9.392;2023-05-07T12:39:38;28.20;58.50
814;DHT22;389;48.710;9.392;2023-05-07T12:42:04;28.10;58.60
814;DHT22;389;48.710;9.392;2023-05-07T12:44:34;28.00;58.90
814;DHT22;389;48.710;9.392;2023-05-07T12:47:03;27.70;59.60
814;DHT22;389;48.710;9.392;2023-05-07T12:49:29;27.50;59.80
814;DHT22;389;48.710;9.392;2023-05-07T12:51:54;27.20;59.60
814;DHT22;389;48.710;9.392;2023-05-07T12:54:31;27.00;59.30
814;DHT22;389;48.710;9.392;2023-05-07T12:57:08;26.60;59.40
814;DHT22;389;48.710;9.392;2023-05-07T12:59:34;26.30;60.70
814;DHT22;389;48.710;9.392;2023-05-07T13:02:00;25.90;62.40
814;DHT22;389;48.710;9.392;2023-05-07T13:04:26;25.60;64.20
814;DHT22;389;48.710;9.392;2023-05-07T13:06:52;25.30;66.60
814;DHT22;389;48.710;9.392;2023-05-07T13:09:17;25.10;67.90
814;DHT22;389;48.710;9.392;2023-05-07T13:11:43;24.80;68.80
814;DHT22;389;48.710;9.392;2023-05-07T13:14:08;24.60;68.20
814;DHT22;389;48.710;9.392;2023-05-07T13:16:34;24.40;67.90
814;DHT22;389;48.710;9.392;2023-05-07T13:18:59;24.30;69.40
814;DHT22;389;48.710;9.392;2023-05-07T13:21:25;24.20;70.60
814;DHT22;389;48.710;9.392;2023-05-07T13:23:52;24.00;72.70
814;DHT22;389;48.710;9.392;2023-05-07T13:26:18;23.80;75.80
814;DHT22;389;48.710;9.392;2023-05-07T13:28:44;23.40;80.60
814;DHT22;389;48.710;9.392;2023-05-07T13:31:09;23.10;84.40
814;DHT22;389;48.710;9.392;2023-05-07T13:33:35;22.70;85.50
814;DHT22;389;48.710;9.392;2023-05-07T13:36:01;22.30;88.00
814;DHT22;389;48.710;9.392;2023-05-07T13:38:29;22.00;89.90
814;DHT22;389;48.710;9.392;2023-05-07T13:40:54;21.80;90.20
814;DHT22;389;48.710;9.392;2023-05-07T13:43:20;21.60;90.50
814;DHT22;389;48.710;9.392;2023-05-07T13:45:46;21.30;90.70
814;DHT22;389;48.710;9.392;2023-05-07T13:48:11;21.20;91.00
814;DHT22;389;48.710;9.392;2023-05-07T13:50:37;21.10;91.20
814;DHT22;389;48.710;9.392;2023-05-07T13:53:02;20.90;91.70
814;DHT22;389;48.710;9.392;2023-05-07T13:55:28;20.80;92.10
814;DHT22;389;48.710;9.392;2023-05-07T13:57:59;20.60;92.30
814;DHT22;389;48.710;9.392;2023-05-07T14:00:25;20.40;90.60
814;DHT22;389;48.710;9.392;2023-05-07T14:02:52;20.20;91.50
814;DHT22;389;48.710;9.392;2023-05-07T14:05:18;20.10;92.80
814;DHT22;389;48.710;9.392;2023-05-07T14:07:44;19.90;93.50
814;DHT22;389;48.710;9.392;2023-05-07T14:10:10;19.90;94.30
814;DHT22;389;48.710;9.392;2023-05-07T14:12:36;19.80;95.50
814;DHT22;389;48.710;9.392;2023-05-07T14:15:03;19.50;95.30
814;DHT22;389;48.710;9.392;2023-05-07T14:17:28;19.30;95.10
814;DHT22;389;48.710;9.392;2023-05-07T14:19:54;19.10;95.40
814;DHT22;389;48.710;9.392;2023-05-07T14:22:21;19.00;95.30
814;DHT22;389;48.710;9.392;2023-05-07T14:24:47;18.90;95.90
814;DHT22;389;48.710;9.392;2023-05-07T14:27:13;18.70;95.90
814;DHT22;389;48.710;9.392;2023-05-07T14:29:39;18.60;97.00
814;DHT22;389;48.710;9.392;2023-05-07T14:32:05;18.50;97.00
814;DHT22;389;48.710;9.392;2023-05-07T14:34:31;18.30;97.40
814;DHT22;389;48.710;9.392;2023-05-07T14:36:56;18.30;98.10
814;DHT22;389;48.710;9.392;2023-05-07T14:39:22;18.30;98.50
814;DHT22;389;48.710;9.392;2023-05-07T14:41:47;18.20;99.10
814;DHT22;389;48.710;9.392;2023-05-07T14:44:13;18.30;99.30
814;DHT22;389;48.710;9.392;2023-05-07T14:46:38;18.10;99.50
814;DHT22;389;48.710;9.392;2023-05-07T14:49:04;18.10;99.80
814;DHT22;389;48.710;9.392;2023-05-07T14:51:30;18.00;99.90
814;DHT22;389;48.710;9.392;2023-05-07T14:53:56;18.00;99.90
814;DHT22;389;48.710;9.392;2023-05-07T14:56:21;17.90;99.90
814;DHT22;389;48.710;9.392;2023-05-07T14:58:47;17.80;99.80
814;DHT22;389;48.710;9.392;2023-05-07T15:01:16;17.90;99.90
814;DHT22;389;48.710;9.392;2023-05-07T15:03:42;17.80;99.90
814;DHT22;389;48.710;9.392;2023-05-07T15:06:07;17.80;99.90
814;DHT22;389;48.710;9.392;2023-05-07T15:08:33;17.80;99.90
814;DHT22;389;48.710;9.392;2023-05-07T15:10:58;17.70;99.90
814;DHT22;389;48.710;9.392;2023-05-07T15:13:24;17.80;99.90
814;DHT22;389;48.710;9.392;2023-05-07T15:15:50;17.70;99.90
814;DHT22;389;48.710;9.392;2023-05-07T15:18:16;17.70;99.90
814;DHT22;389;48.710;9.392;2023-05-07T15:20:42;17.60;99.90
814;DHT22;389;48.710;9.392;2023-05-07T15:23:08;17.60;99.90
814;DHT22;389;48.710;9.392;2023-05-07T15:25:36;17.60;99.90
814;DHT22;389;48.710;9.392;2023-05-07T15:28:01;17.60;99.90
814;DHT22;389;48.710;9.392;2023-05-07T15:30:27;17.60;99.90
814;DHT22;389;48.710;9.392;2023-05-07T15:32:53;17.70;99.90
814;DHT22;389;48.710;9.392;2023-05-07T15:35:18;17.60;99.90
814;DHT22;389;48.710;9.392;2023-05-07T15:37:50;17.60;99.90
814;DHT22;389;48.710;9.392;2023-05-07T15:40:16;17.60;99.90
814;DHT22;389;48.710;9.392;2023-05-07T15:42:42;17.70;99.90
814;DHT22;389;48.710;9.392;2023-05-07T15:45:08;17.70;99.90
814;DHT22;389;48.710;9.392;2023-05-07T15:47:35;17.80;99.90
814;DHT22;389;48.710;9.392;2023-05-07T15:50:01;17.90;99.90
814;DHT22;389;48.710;9.392;2023-05-07T15:52:40;17.90;99.90
814;DHT22;389;48.710;9.392;2023-05-07T15:55:07;17.90;99.90
814;DHT22;389;48.710;9.392;2023-05-07T15:57:34;17.90;99.90
814;DHT22;389;48.710;9.392;2023-05-07T16:00:00;17.90;99.90
814;DHT22;389;48.710;9.392;2023-05-07T16:02:25;18.00;99.90
814;DHT22;389;48.710;9.392;2023-05-07T16:04:57;18.00;99.90
814;DHT22;389;48.710;9.392;2023-05-07T16:07:23;17.90;99.90
814;DHT22;389;48.710;9.392;2023-05-07T16:09:48;17.90;99.90
814;DHT22;389;48.710;9.392;2023-05-07T16:12:14;18.00;99.90
814;DHT22;389;48.710;9.392;2023-05-07T16:14:45;18.10;99.90
814;DHT22;389;48.710;9.392;2023-05-07T16:17:10;18.10;99.90
814;DHT22;389;48.710;9.392;2023-05-07T16:19:36;18.10;99.90
814;DHT22;389;48.710;9.392;2023-05-07T16:22:01;18.20;99.90
814;DHT22;389;48.710;9.392;2023-05-07T16:24:28;18.20;99.90
814;DHT22;389;48.710;9.392;2023-05-07T16:26:54;18.30;99.90
814;DHT22;389;48.710;9.392;2023-05-07T16:29:20;18.20;99.90
814;DHT22;389;48.710;9.392;2023-05-07T16:31:47;18.20;99.90
814;DHT22;389;48.710;9.392;2023-05-07T16:34:12;18.10;99.90
814;DHT22;389;48.710;9.392;2023-05-07T16:36:38;18.10;99.90
814;DHT22;389;48.710;9.392;2023-05-07T16:39:04;18.10;99.90
814;DHT22;389;48.710;9.392;2023-05-07T16:41:29;18.10;99.90
814;DHT22;389;48.710;9.392;2023-05-07T16:43:55;18.10;99.90
814;DHT22;389;48.710;9.392;2023-05-07T16:46:22;18.20;99.90
814;DHT22;389;48.710;9.392;2023-05-07T16:48:47;18.10;99.90
814;DHT22;389;48.710;9.392;2023-05-07T16:51:13;18.10;99.90
814;DHT22;389;48.710;9.392;2023-05-07T16:53:38;18.10;99.90